createdAt,value
2019-05-11T00:01:02.891Z,11.63
2019-05-11T00:03:32.449Z,11.62
2019-05-11T00:06:13.434Z,11.62
2019-05-11T00:08:42.805Z,11.61
2019-05-11T00:11:12.215Z,11.58
2019-05-11T00:13:41.737Z,11.59
2019-05-11T00:16:11.377Z,11.57
2019-05-11T00:18:40.757Z,11.55
2019-05-11T00:21:13.630Z,11.56
2019-05-11T00:23:43.009Z,11.55
2019-05-11T00:26:12.459Z,11.54
2019-05-11T00:28:41.890Z,11.52
2019-05-11T00:31:11.571Z,11.51
2019-05-11T00:33:41.000Z,11.49
2019-05-11T00:36:10.379Z,11.47
2019-05-11T00:38:39.734Z,11.46
2019-05-11T00:41:09.113Z,11.46
2019-05-11T00:43:38.586Z,11.47
2019-05-11T00:46:08.074Z,11.47
2019-05-11T00:48:37.466Z,11.44
2019-05-11T00:51:06.846Z,11.45
2019-05-11T00:53:36.218Z,11.43
2019-05-11T00:56:05.612Z,11.43
2019-05-11T00:58:35.828Z,11.41
2019-05-11T01:01:05.635Z,11.38
2019-05-11T01:03:36.148Z,11.39
2019-05-11T01:06:05.676Z,11.42
2019-05-11T01:08:35.109Z,11.43
2019-05-11T01:11:04.536Z,11.42
2019-05-11T01:13:34.094Z,11.41
2019-05-11T01:16:03.513Z,11.41
2019-05-11T01:18:32.916Z,11.40
2019-05-11T01:21:02.352Z,11.42
2019-05-11T01:23:31.902Z,11.40
2019-05-11T01:26:01.273Z,11.39
2019-05-11T01:28:32.011Z,11.36
2019-05-11T01:31:01.463Z,11.35
2019-05-11T01:33:31.411Z,11.28
2019-05-11T01:36:01.047Z,11.28
2019-05-11T01:38:30.504Z,11.26
2019-05-11T01:41:00.087Z,11.17
2019-05-11T01:43:29.746Z,11.05
2019-05-11T01:45:59.211Z,11.00
2019-05-11T01:48:29.024Z,10.93
2019-05-11T01:50:59.809Z,10.88
2019-05-11T01:53:37.047Z,10.82
2019-05-11T01:56:06.544Z,10.77
2019-05-11T01:58:35.942Z,10.67
2019-05-11T02:01:05.738Z,10.55
2019-05-11T02:03:36.903Z,10.45
2019-05-11T02:06:06.578Z,10.32
2019-05-11T02:08:35.979Z,10.24
2019-05-11T02:11:15.414Z,10.17
2019-05-11T02:13:36.673Z,10.09
2019-05-11T02:16:06.036Z,10.04
2019-05-11T02:18:35.478Z,9.99
2019-05-11T02:21:04.915Z,9.93
2019-05-11T02:23:34.284Z,9.88
2019-05-11T02:26:04.199Z,9.86
2019-05-11T02:28:33.635Z,9.84
2019-05-11T02:31:03.154Z,9.82
2019-05-11T02:33:32.634Z,9.79
2019-05-11T02:36:04.824Z,9.73
2019-05-11T02:38:34.136Z,9.69
2019-05-11T02:41:03.900Z,9.65
2019-05-11T02:43:33.699Z,9.65
2019-05-11T02:46:06.295Z,9.65
2019-05-11T02:48:35.853Z,9.65
2019-05-11T02:51:05.224Z,9.61
2019-05-11T02:53:34.988Z,9.62
2019-05-11T02:56:15.345Z,9.63
2019-05-11T02:58:46.062Z,9.64
2019-05-11T03:01:15.731Z,9.68
2019-05-11T03:03:45.537Z,9.72
2019-05-11T03:06:15.718Z,9.74
2019-05-11T03:08:45.164Z,9.76
2019-05-11T03:11:17.094Z,9.78
2019-05-11T03:13:46.528Z,9.80
2019-05-11T03:16:15.985Z,9.79
2019-05-11T03:18:45.419Z,9.80
2019-05-11T03:21:14.786Z,9.83
2019-05-11T03:23:44.129Z,9.85
2019-05-11T03:26:13.998Z,9.89
2019-05-11T03:28:43.348Z,9.90
2019-05-11T03:31:12.766Z,9.93
2019-05-11T03:33:42.228Z,9.92
2019-05-11T03:36:11.740Z,9.90
2019-05-11T03:38:41.126Z,9.91
2019-05-11T03:41:14.295Z,9.92
2019-05-11T03:43:43.666Z,9.89
2019-05-11T03:46:13.167Z,9.84
2019-05-11T03:48:42.646Z,9.83
2019-05-11T03:51:12.001Z,9.80
2019-05-11T03:53:44.405Z,9.79
2019-05-11T03:56:13.860Z,9.78
2019-05-11T03:58:43.228Z,9.79
2019-05-11T04:01:12.602Z,9.77
2019-05-11T04:03:41.994Z,9.78
2019-05-11T04:06:11.652Z,9.78
2019-05-11T04:08:41.347Z,9.79
2019-05-11T04:11:10.735Z,9.82
2019-05-11T04:13:40.130Z,9.80
2019-05-11T04:16:09.489Z,9.82
2019-05-11T04:18:38.953Z,9.94
2019-05-11T04:21:08.395Z,10.06
2019-05-11T04:23:37.802Z,10.06
2019-05-11T04:26:07.306Z,10.12
2019-05-11T04:28:36.688Z,10.17
2019-05-11T04:31:06.043Z,10.23
2019-05-11T04:33:35.617Z,10.35
2019-05-11T04:36:04.993Z,10.48
2019-05-11T04:38:34.526Z,10.62
2019-05-11T04:41:03.935Z,10.68
2019-05-11T04:43:33.651Z,10.71
2019-05-11T04:46:03.216Z,10.70
2019-05-11T04:48:33.265Z,10.70
2019-05-11T04:51:02.771Z,10.66
2019-05-11T04:53:32.249Z,10.62
2019-05-11T04:56:03.630Z,10.60
2019-05-11T04:58:33.123Z,10.60
2019-05-11T05:01:02.494Z,10.64
2019-05-11T05:03:40.778Z,10.68
2019-05-11T05:06:20.823Z,10.68
2019-05-11T05:08:34.571Z,10.74
2019-05-11T05:11:06.320Z,10.77
2019-05-11T05:13:35.661Z,10.82
2019-05-11T05:16:05.088Z,10.83
2019-05-11T05:18:34.505Z,10.91
2019-05-11T05:21:03.882Z,11.03
2019-05-11T05:23:33.367Z,11.08
2019-05-11T05:26:02.874Z,11.18
2019-05-11T05:28:32.302Z,11.27
2019-05-11T05:31:01.726Z,11.31
2019-05-11T05:33:31.262Z,11.33
2019-05-11T05:36:01.730Z,11.33
2019-05-11T05:38:31.218Z,11.31
2019-05-11T05:41:04.292Z,11.23
2019-05-11T05:43:33.611Z,11.21
2019-05-11T05:46:03.173Z,11.21
2019-05-11T05:48:33.540Z,11.12
2019-05-11T05:51:02.965Z,11.14
2019-05-11T05:53:32.389Z,11.13
2019-05-11T05:56:02.058Z,11.15
2019-05-11T05:58:31.699Z,11.22
2019-05-11T06:01:01.218Z,11.29
2019-05-11T06:03:32.546Z,11.33
2019-05-11T06:06:03.975Z,11.35
2019-05-11T06:08:33.484Z,11.34
2019-05-11T06:11:05.314Z,11.40
2019-05-11T06:13:45.220Z,11.32
2019-05-11T06:16:06.331Z,11.34
2019-05-11T06:18:35.842Z,11.36
2019-05-11T06:21:05.303Z,11.44
2019-05-11T06:23:34.782Z,11.58
2019-05-11T06:26:04.362Z,11.53
2019-05-11T06:28:33.835Z,11.50
2019-05-11T06:31:03.359Z,11.62
2019-05-11T06:33:33.027Z,11.83
2019-05-11T06:36:02.376Z,11.97
2019-05-11T06:38:31.790Z,11.97
2019-05-11T06:41:03.161Z,11.96
2019-05-11T06:43:34.333Z,11.88
2019-05-11T06:46:06.182Z,11.95
2019-05-11T06:48:35.545Z,12.19
2019-05-11T06:51:04.944Z,12.34
2019-05-11T06:53:34.396Z,12.54
2019-05-11T06:56:03.974Z,12.55
2019-05-11T06:58:34.984Z,12.51
2019-05-11T07:01:04.414Z,12.41
2019-05-11T07:03:33.941Z,12.29
2019-05-11T07:06:03.654Z,12.15
2019-05-11T07:08:34.161Z,12.03
2019-05-11T07:11:03.520Z,12.14
2019-05-11T07:13:33.016Z,12.30
2019-05-11T07:16:03.056Z,12.49
2019-05-11T07:18:32.408Z,12.68
2019-05-11T07:21:01.840Z,12.68
2019-05-11T07:23:32.147Z,12.59
2019-05-11T07:26:03.403Z,12.61
2019-05-11T07:28:32.882Z,12.87
2019-05-11T07:31:02.338Z,13.11
2019-05-11T07:33:31.836Z,13.27
2019-05-11T07:36:01.319Z,13.21
2019-05-11T07:38:31.732Z,13.20
2019-05-11T07:41:01.320Z,12.95
2019-05-11T07:43:30.769Z,12.79
2019-05-11T07:46:00.459Z,12.55
2019-05-11T07:48:29.874Z,12.37
2019-05-11T07:50:59.310Z,12.24
2019-05-11T07:53:31.185Z,12.25
2019-05-11T07:56:04.079Z,12.31
2019-05-11T07:58:33.437Z,12.41
2019-05-11T08:01:02.992Z,12.53
2019-05-11T08:03:35.425Z,12.54
2019-05-11T08:06:05.132Z,12.57
2019-05-11T08:08:38.241Z,12.56
2019-05-11T08:11:08.117Z,12.54
2019-05-11T08:13:38.840Z,12.65
2019-05-11T08:16:08.398Z,12.84
2019-05-11T08:18:38.714Z,13.20
2019-05-11T08:21:10.049Z,13.70
2019-05-11T08:23:39.865Z,14.02
2019-05-11T08:26:09.300Z,14.22
2019-05-11T08:28:38.718Z,14.35
2019-05-11T08:31:08.262Z,14.47
2019-05-11T08:33:38.880Z,14.49
2019-05-11T08:36:08.558Z,14.72
2019-05-11T08:38:38.039Z,15.04
2019-05-11T08:41:08.232Z,15.39
2019-05-11T08:43:38.907Z,15.56
2019-05-11T08:46:08.434Z,15.32
2019-05-11T08:48:38.825Z,15.06
2019-05-11T08:51:08.584Z,14.69
2019-05-11T08:53:38.751Z,14.50
2019-05-11T08:56:11.077Z,14.67
2019-05-11T08:58:39.495Z,14.56
2019-05-11T09:01:09.027Z,14.49
2019-05-11T09:03:38.858Z,14.52
2019-05-11T09:06:08.647Z,14.35
2019-05-11T09:08:38.954Z,14.34
2019-05-11T09:11:08.567Z,14.36
2019-05-11T09:13:39.401Z,14.30
2019-05-11T09:16:11.305Z,14.34
2019-05-11T09:18:40.703Z,14.37
2019-05-11T09:21:10.316Z,14.43
2019-05-11T09:23:40.769Z,14.46
2019-05-11T09:26:10.396Z,14.50
2019-05-11T09:28:39.813Z,14.52
2019-05-11T09:31:09.667Z,14.58
2019-05-11T09:33:39.071Z,14.93
2019-05-11T09:36:08.767Z,15.20
2019-05-11T09:38:38.525Z,15.53
2019-05-11T09:41:11.863Z,15.78
2019-05-11T09:43:39.260Z,15.89
2019-05-11T09:46:08.979Z,15.95
2019-05-11T09:48:38.397Z,15.86
2019-05-11T09:51:08.115Z,15.45
2019-05-11T09:53:38.858Z,15.10
2019-05-11T09:56:19.118Z,14.90
2019-05-11T09:58:48.440Z,14.84
2019-05-11T10:01:18.584Z,15.13
2019-05-11T10:03:48.384Z,15.30
2019-05-11T10:06:19.026Z,15.39
2019-05-11T10:08:48.975Z,15.50
2019-05-11T10:11:19.189Z,15.73
2019-05-11T10:13:48.585Z,16.08
2019-05-11T10:16:18.161Z,16.29
2019-05-11T10:18:49.167Z,16.37
2019-05-11T10:21:19.041Z,16.42
2019-05-11T10:23:48.904Z,16.42
2019-05-11T10:26:19.025Z,16.38
2019-05-11T10:28:48.511Z,16.48
2019-05-11T10:31:18.320Z,16.54
2019-05-11T10:33:49.017Z,16.45
2019-05-11T10:36:19.085Z,16.66
2019-05-11T10:38:48.890Z,16.62
2019-05-11T10:41:18.515Z,16.32
2019-05-11T10:43:49.198Z,16.38
2019-05-11T10:46:22.921Z,16.55
2019-05-11T10:48:49.788Z,16.62
2019-05-11T10:51:19.186Z,16.77
2019-05-11T10:53:51.986Z,16.78
2019-05-11T10:56:19.713Z,16.76
2019-05-11T10:58:49.149Z,16.79
2019-05-11T11:01:18.646Z,16.80
2019-05-11T11:03:48.562Z,16.89
2019-05-11T11:06:19.007Z,16.84
2019-05-11T11:08:48.935Z,16.66
2019-05-11T11:11:19.279Z,16.45
2019-05-11T11:13:48.686Z,16.36
2019-05-11T11:16:35.049Z,16.39
2019-05-11T11:18:49.159Z,16.46
2019-05-11T11:21:22.533Z,16.36
2019-05-11T11:23:49.672Z,16.26
2019-05-11T11:26:19.054Z,16.11
2019-05-11T11:28:48.504Z,16.26
2019-05-11T11:31:18.591Z,16.50
2019-05-11T11:33:49.153Z,16.78
2019-05-11T11:36:18.689Z,16.89
2019-05-11T11:38:48.177Z,16.98
2019-05-11T11:41:18.488Z,17.16
2019-05-11T11:43:48.595Z,17.27
2019-05-11T11:46:27.772Z,17.07
2019-05-11T11:48:58.138Z,17.12
2019-05-11T11:51:28.728Z,17.22
2019-05-11T11:53:58.534Z,17.21
2019-05-11T11:56:28.448Z,17.25
2019-05-11T11:58:58.099Z,16.99
2019-05-11T12:01:31.158Z,16.78
2019-05-11T12:04:00.697Z,16.83
2019-05-11T12:06:30.440Z,16.81
2019-05-11T12:08:59.936Z,16.83
2019-05-11T12:11:30.218Z,16.89
2019-05-11T12:13:59.729Z,16.73
2019-05-11T12:16:29.148Z,16.46
2019-05-11T12:19:00.913Z,16.32
2019-05-11T12:21:31.645Z,16.50
2019-05-11T12:24:01.236Z,16.47
2019-05-11T12:26:31.640Z,16.59
2019-05-11T12:29:01.117Z,16.66
2019-05-11T12:31:32.622Z,16.54
2019-05-11T12:34:02.188Z,16.56
2019-05-11T12:36:31.813Z,16.63
2019-05-11T12:39:01.196Z,16.60
2019-05-11T12:41:30.747Z,16.46
2019-05-11T12:44:00.362Z,16.55
2019-05-11T12:46:32.684Z,16.51
2019-05-11T12:49:02.462Z,16.49
2019-05-11T12:51:31.972Z,16.42
2019-05-11T12:54:01.402Z,16.32
2019-05-11T12:56:31.133Z,16.39
2019-05-11T12:59:00.632Z,16.43
2019-05-11T13:01:30.267Z,16.39
2019-05-11T13:03:59.930Z,16.42
2019-05-11T13:06:38.534Z,16.47
2019-05-11T13:09:08.959Z,16.36
2019-05-11T13:11:38.752Z,16.37
2019-05-11T13:14:08.306Z,16.30
2019-05-11T13:16:38.128Z,16.37
2019-05-11T13:19:08.378Z,16.43
2019-05-11T13:21:38.415Z,16.59
2019-05-11T13:24:08.448Z,16.68
2019-05-11T13:26:38.234Z,16.63
2019-05-11T13:29:07.995Z,16.56
2019-05-11T13:31:39.725Z,16.52
2019-05-11T13:34:09.189Z,16.58
2019-05-11T13:36:39.286Z,16.57
2019-05-11T13:39:09.189Z,16.61
2019-05-11T13:41:38.553Z,16.60
2019-05-11T13:44:08.177Z,16.59
2019-05-11T13:46:38.882Z,16.59
2019-05-11T13:49:08.671Z,16.58
2019-05-11T13:51:38.992Z,16.66
2019-05-11T13:54:08.759Z,16.64
2019-05-11T13:56:38.624Z,16.67
2019-05-11T13:59:10.686Z,16.69
2019-05-11T14:01:40.967Z,16.72
2019-05-11T14:04:10.349Z,16.67
2019-05-11T14:06:39.997Z,16.66
2019-05-11T14:09:10.247Z,16.75
2019-05-11T14:11:39.924Z,16.79
2019-05-11T14:14:09.872Z,16.82
2019-05-11T14:16:39.350Z,16.73
2019-05-11T14:19:08.832Z,16.69
2019-05-11T14:21:38.635Z,16.65
2019-05-11T14:24:08.439Z,16.73
2019-05-11T14:26:39.901Z,16.78
2019-05-11T14:29:09.287Z,16.79
2019-05-11T14:31:40.063Z,16.66
2019-05-11T14:34:09.541Z,16.68
2019-05-11T14:36:39.028Z,16.72
2019-05-11T14:39:08.850Z,16.77
2019-05-11T14:41:38.435Z,16.84
2019-05-11T14:44:08.936Z,16.87
2019-05-11T14:46:38.743Z,16.95
2019-05-11T14:49:08.220Z,16.89
2019-05-11T14:51:39.062Z,16.93
2019-05-11T14:54:08.710Z,16.98
2019-05-11T14:56:38.496Z,16.99
2019-05-11T14:59:09.045Z,17.03
2019-05-11T15:01:38.867Z,17.07
2019-05-11T15:04:09.090Z,17.05
2019-05-11T15:06:38.835Z,17.04
2019-05-11T15:09:08.702Z,17.00
2019-05-11T15:11:38.933Z,17.06
2019-05-11T15:14:08.444Z,17.16
2019-05-11T15:16:38.517Z,17.33
2019-05-11T15:19:08.265Z,17.51
2019-05-11T15:21:38.666Z,17.69
2019-05-11T15:24:09.211Z,17.90
2019-05-11T15:26:38.690Z,18.01
2019-05-11T15:29:08.392Z,18.16
2019-05-11T15:31:38.281Z,18.44
2019-05-11T15:34:08.615Z,18.89
2019-05-11T15:36:38.795Z,19.46
2019-05-11T15:39:08.674Z,19.93
2019-05-11T15:41:38.850Z,20.48
2019-05-11T15:44:11.803Z,21.08
2019-05-11T15:46:39.826Z,21.27
2019-05-11T15:49:09.230Z,21.56
2019-05-11T15:51:41.181Z,21.44
2019-05-11T15:54:09.885Z,21.53
2019-05-11T15:56:39.408Z,21.38
2019-05-11T15:59:08.930Z,21.55
2019-05-11T16:01:41.187Z,20.91
2019-05-11T16:04:09.436Z,20.70
2019-05-11T16:06:38.808Z,21.10
2019-05-11T16:09:08.678Z,21.77
2019-05-11T16:11:39.438Z,22.24
2019-05-11T16:14:09.232Z,22.17
2019-05-11T16:16:39.258Z,22.54
2019-05-11T16:19:14.629Z,22.01
2019-05-11T16:21:40.425Z,21.95
2019-05-11T16:24:09.870Z,21.06
2019-05-11T16:26:41.150Z,20.32
2019-05-11T16:29:11.470Z,20.75
2019-05-11T16:31:41.028Z,21.51
2019-05-11T16:34:10.381Z,22.14
2019-05-11T16:36:39.800Z,22.78
2019-05-11T16:39:10.412Z,23.19
2019-05-11T16:41:43.841Z,23.27
2019-05-11T16:44:13.305Z,23.41
2019-05-11T16:46:42.692Z,23.43
2019-05-11T16:49:24.966Z,23.46
2019-05-11T16:51:43.268Z,23.50
2019-05-11T16:54:12.667Z,23.71
2019-05-11T16:56:52.739Z,23.82
2019-05-11T16:59:23.525Z,23.98
2019-05-11T17:01:53.062Z,24.22
2019-05-11T17:04:28.867Z,24.23
2019-05-11T17:06:57.870Z,24.27
2019-05-11T17:09:27.471Z,23.99
2019-05-11T17:11:57.873Z,23.74
2019-05-11T17:14:28.329Z,23.61
2019-05-11T17:16:58.569Z,23.64
2019-05-11T17:19:42.950Z,23.63
2019-05-11T17:22:01.499Z,23.71
2019-05-11T17:24:30.947Z,23.62
2019-05-11T17:27:00.616Z,23.63
2019-05-11T17:29:30.276Z,23.67
2019-05-11T17:31:59.894Z,23.48
2019-05-11T17:34:29.366Z,23.29
2019-05-11T17:37:00.153Z,23.14
2019-05-11T17:39:29.841Z,22.98
2019-05-11T17:41:59.419Z,22.88
2019-05-11T17:44:29.042Z,22.89
2019-05-11T17:46:58.752Z,22.59
2019-05-11T17:49:28.327Z,22.43
2019-05-11T17:51:58.096Z,22.35
2019-05-11T17:54:28.433Z,22.02
2019-05-11T17:56:58.236Z,21.96
2019-05-11T17:59:28.214Z,21.90
2019-05-11T18:01:58.109Z,21.91
2019-05-11T18:04:27.516Z,21.93
2019-05-11T18:06:58.809Z,21.82
2019-05-11T18:09:28.185Z,21.61
2019-05-11T18:11:58.645Z,21.50
2019-05-11T18:14:35.889Z,21.36
2019-05-11T18:17:03.489Z,21.14
2019-05-11T18:19:33.036Z,20.75
2019-05-11T18:22:02.456Z,20.07
2019-05-11T18:24:32.000Z,19.44
2019-05-11T18:27:01.454Z,18.90
2019-05-11T18:29:30.914Z,18.37
2019-05-11T18:32:00.492Z,17.93
2019-05-11T18:34:30.113Z,17.41
2019-05-11T18:36:59.898Z,16.99
2019-05-11T18:39:29.308Z,16.65
2019-05-11T18:41:58.918Z,16.39
2019-05-11T18:44:28.300Z,16.21
2019-05-11T18:47:08.862Z,15.97
2019-05-11T18:49:38.376Z,15.79
2019-05-11T18:52:08.350Z,15.58
2019-05-11T18:54:38.479Z,15.37
2019-05-11T18:57:08.263Z,15.17
2019-05-11T18:59:37.986Z,15.04
2019-05-11T19:02:08.399Z,14.87
2019-05-11T19:04:38.215Z,14.70
2019-05-11T19:07:16.312Z,14.51
2019-05-11T19:09:43.679Z,14.37
2019-05-11T19:12:13.307Z,14.22
2019-05-11T19:14:45.084Z,14.06
2019-05-11T19:17:14.742Z,13.91
2019-05-11T19:19:44.115Z,13.78
2019-05-11T19:22:13.500Z,13.70
2019-05-11T19:24:42.916Z,13.60
2019-05-11T19:27:12.320Z,13.50
2019-05-11T19:29:41.720Z,13.39
2019-05-11T19:32:11.320Z,13.29
2019-05-11T19:34:40.759Z,13.20
2019-05-11T19:37:13.113Z,13.11
2019-05-11T19:39:42.521Z,13.04
2019-05-11T19:42:11.905Z,12.94
2019-05-11T19:44:41.363Z,12.84
2019-05-11T19:47:11.011Z,12.76
2019-05-11T19:49:40.407Z,12.67
2019-05-11T19:52:09.824Z,12.60
2019-05-11T19:54:39.234Z,12.52
2019-05-11T19:57:08.721Z,12.47
2019-05-11T19:59:38.840Z,12.39
2019-05-11T20:02:08.526Z,12.36
2019-05-11T20:04:38.683Z,12.26
2019-05-11T20:07:08.718Z,12.19
2019-05-11T20:09:38.813Z,12.09
2019-05-11T20:12:08.407Z,12.01
2019-05-11T20:14:38.302Z,11.90
2019-05-11T20:17:08.952Z,11.83
2019-05-11T20:19:38.558Z,11.77
2019-05-11T20:22:07.923Z,11.68
2019-05-11T20:24:37.424Z,11.59
2019-05-11T20:27:08.053Z,11.51
2019-05-11T20:29:38.423Z,11.43
2019-05-11T20:32:08.206Z,11.38
2019-05-11T20:34:38.187Z,11.30
2019-05-11T20:37:07.898Z,11.24
2019-05-11T20:39:37.986Z,11.17
2019-05-11T20:42:08.714Z,11.09
2019-05-11T20:44:38.427Z,11.03
2019-05-11T20:47:07.789Z,10.99
2019-05-11T20:49:38.640Z,10.92
2019-05-11T20:52:10.931Z,10.87
2019-05-11T20:54:40.401Z,10.79
2019-05-11T20:57:10.071Z,10.73
2019-05-11T20:59:39.479Z,10.65
2019-05-11T21:02:09.397Z,10.55
2019-05-11T21:04:38.940Z,10.45
2019-05-11T21:07:08.624Z,10.36
2019-05-11T21:09:38.099Z,10.29
2019-05-11T21:12:08.257Z,10.24
2019-05-11T21:14:38.633Z,10.19
2019-05-11T21:17:09.113Z,10.14
2019-05-11T21:19:39.761Z,10.07
2019-05-11T21:22:09.760Z,9.99
2019-05-11T21:24:39.166Z,9.91
2019-05-11T21:27:08.553Z,9.84
2019-05-11T21:29:38.766Z,9.76
2019-05-11T21:32:08.399Z,9.69
2019-05-11T21:34:38.323Z,9.63
2019-05-11T21:37:07.969Z,9.58
2019-05-11T21:39:37.900Z,9.54
2019-05-11T21:42:07.840Z,9.49
2019-05-11T21:44:37.333Z,9.46
2019-05-11T21:47:07.682Z,9.41
2019-05-11T21:49:37.788Z,9.33
2019-05-11T21:52:07.865Z,9.32
2019-05-11T21:54:38.699Z,9.28
2019-05-11T21:57:08.432Z,9.25
2019-05-11T21:59:38.024Z,9.20
2019-05-11T22:02:10.963Z,9.20
2019-05-11T22:04:39.119Z,9.16
2019-05-11T22:07:08.483Z,9.11
2019-05-11T22:09:38.516Z,9.10
2019-05-11T22:12:10.803Z,9.06
2019-05-11T22:14:39.155Z,9.03
2019-05-11T22:17:08.941Z,8.97
2019-05-11T22:19:40.431Z,8.93
2019-05-11T22:22:25.479Z,8.90
2019-05-11T22:24:54.436Z,8.84
2019-05-11T22:27:24.439Z,8.80
2019-05-11T22:29:53.978Z,8.74
2019-05-11T22:32:23.399Z,8.70
2019-05-11T22:34:55.257Z,8.65
2019-05-11T22:37:27.780Z,8.61
2019-05-11T22:39:57.812Z,8.56
2019-05-11T22:42:28.018Z,8.52
2019-05-11T22:45:00.805Z,8.48
2019-05-11T22:47:30.267Z,8.43
2019-05-11T22:50:00.045Z,8.37
2019-05-11T22:52:36.122Z,8.33
2019-05-11T22:55:00.627Z,8.30
2019-05-11T22:57:30.229Z,8.28
2019-05-11T23:00:01.730Z,8.23
2019-05-11T23:02:31.281Z,8.20
2019-05-11T23:05:03.075Z,8.15
2019-05-11T23:07:32.431Z,8.12
2019-05-11T23:10:12.207Z,8.07
2019-05-11T23:12:41.589Z,8.02
2019-05-11T23:15:13.072Z,7.99
2019-05-11T23:17:43.142Z,7.95
2019-05-11T23:20:12.851Z,7.93
2019-05-11T23:22:57.785Z,7.92
2019-05-11T23:25:20.346Z,7.86
2019-05-11T23:27:49.739Z,7.82
2019-05-11T23:30:20.275Z,7.76
2019-05-11T23:32:50.014Z,7.71
2019-05-11T23:35:19.434Z,7.67
2019-05-11T23:37:49.854Z,7.63
2019-05-11T23:40:20.272Z,7.60
2019-05-11T23:42:49.710Z,7.58
2019-05-11T23:45:19.406Z,7.56
2019-05-11T23:47:51.393Z,7.54
2019-05-11T23:50:20.961Z,7.52
2019-05-11T23:53:05.393Z,7.51
2019-05-11T23:55:21.528Z,7.50
2019-05-11T23:57:50.990Z,7.48
